sensor_id;sensor_type;location;lat;lon;timestamp;P1;durP1;ratioP1;P2;durP2;ratioP2
15228;SDS011;7717;47.792;12.076;2022-11-15T00:01:36;13.60;;;11.00;;
15228;SDS011;7717;47.792;12.076;2022-11-15T00:04:05;15.73;;;10.70;;
15228;SDS011;7717;47.792;12.076;2022-11-15T00:06:30;11.50;;;8.77;;
15228;SDS011;7717;47.792;12.076;2022-11-15T00:08:59;12.83;;;10.23;;
15228;SDS011;7717;47.792;12.076;2022-11-15T00:11:25;12.83;;;9.67;;
15228;SDS011;7717;47.792;12.076;2022-11-15T00:13:50;12.37;;;9.80;;
15228;SDS011;7717;47.792;12.076;2022-11-15T00:16:16;10.53;;;8.53;;
15228;SDS011;7717;47.792;12.076;2022-11-15T00:18:41;12.60;;;9.63;;
15228;SDS011;7717;47.792;12.076;2022-11-15T00:21:09;10.00;;;8.40;;
15228;SDS011;7717;47.792;12.076;2022-11-15T00:23:36;12.43;;;8.73;;
15228;SDS011;7717;47.792;12.076;2022-11-15T00:26:02;11.50;;;7.60;;
15228;SDS011;7717;47.792;12.076;2022-11-15T00:28:28;11.60;;;8.43;;
15228;SDS011;7717;47.792;12.076;2022-11-15T00:30:53;10.37;;;8.07;;
15228;SDS011;7717;47.792;12.076;2022-11-15T00:33:19;10.37;;;7.40;;
15228;SDS011;7717;47.792;12.076;2022-11-15T00:35:44;10.27;;;7.93;;
15228;SDS011;7717;47.792;12.076;2022-11-15T00:38:09;190.63;;;19.87;;
15228;SDS011;7717;47.792;12.076;2022-11-15T00:40:35;10.93;;;8.50;;
15228;SDS011;7717;47.792;12.076;2022-11-15T00:43:00;12.17;;;8.77;;
15228;SDS011;7717;47.792;12.076;2022-11-15T00:45:26;11.20;;;8.53;;
15228;SDS011;7717;47.792;12.076;2022-11-15T00:47:51;9.63;;;8.07;;
15228;SDS011;7717;47.792;12.076;2022-11-15T00:50:17;11.67;;;7.73;;
15228;SDS011;7717;47.792;12.076;2022-11-15T00:52:43;12.47;;;8.40;;
15228;SDS011;7717;47.792;12.076;2022-11-15T00:55:13;9.77;;;7.77;;
15228;SDS011;7717;47.792;12.076;2022-11-15T00:57:40;12.17;;;8.83;;
15228;SDS011;7717;47.792;12.076;2022-11-15T01:00:06;10.00;;;7.97;;
15228;SDS011;7717;47.792;12.076;2022-11-15T01:02:32;10.90;;;8.20;;
15228;SDS011;7717;47.792;12.076;2022-11-15T01:04:57;9.70;;;8.03;;
15228;SDS011;7717;47.792;12.076;2022-11-15T01:07:22;10.90;;;7.70;;
15228;SDS011;7717;47.792;12.076;2022-11-15T01:09:48;14.80;;;8.80;;
15228;SDS011;7717;47.792;12.076;2022-11-15T01:12:13;10.47;;;7.13;;
15228;SDS011;7717;47.792;12.076;2022-11-15T01:14:38;10.67;;;7.43;;
15228;SDS011;7717;47.792;12.076;2022-11-15T01:17:04;11.03;;;7.57;;
15228;SDS011;7717;47.792;12.076;2022-11-15T01:19:29;11.23;;;7.80;;
15228;SDS011;7717;47.792;12.076;2022-11-15T01:21:55;9.00;;;7.87;;
15228;SDS011;7717;47.792;12.076;2022-11-15T01:24:20;9.73;;;7.77;;
15228;SDS011;7717;47.792;12.076;2022-11-15T01:26:46;9.93;;;7.57;;
15228;SDS011;7717;47.792;12.076;2022-11-15T01:29:11;9.30;;;8.17;;
15228;SDS011;7717;47.792;12.076;2022-11-15T01:31:37;8.63;;;6.90;;
15228;SDS011;7717;47.792;12.076;2022-11-15T01:34:03;12.23;;;7.20;;
15228;SDS011;7717;47.792;12.076;2022-11-15T01:36:28;9.67;;;7.13;;
15228;SDS011;7717;47.792;12.076;2022-11-15T01:38:54;8.33;;;6.90;;
15228;SDS011;7717;47.792;12.076;2022-11-15T01:41:22;8.47;;;6.73;;
15228;SDS011;7717;47.792;12.076;2022-11-15T01:43:51;8.23;;;6.33;;
15228;SDS011;7717;47.792;12.076;2022-11-15T01:46:22;7.70;;;6.17;;
15228;SDS011;7717;47.792;12.076;2022-11-15T01:48:52;8.10;;;6.70;;
15228;SDS011;7717;47.792;12.076;2022-11-15T01:51:21;7.47;;;6.77;;
15228;SDS011;7717;47.792;12.076;2022-11-15T01:53:50;34.47;;;7.70;;
15228;SDS011;7717;47.792;12.076;2022-11-15T01:56:21;8.70;;;6.53;;
15228;SDS011;7717;47.792;12.076;2022-11-15T01:58:50;10.53;;;6.37;;
15228;SDS011;7717;47.792;12.076;2022-11-15T02:01:17;6.53;;;5.47;;
15228;SDS011;7717;47.792;12.076;2022-11-15T02:03:50;10.10;;;6.20;;
15228;SDS011;7717;47.792;12.076;2022-11-15T02:06:20;7.07;;;6.03;;
15228;SDS011;7717;47.792;12.076;2022-11-15T02:08:46;6.03;;;5.37;;
15228;SDS011;7717;47.792;12.076;2022-11-15T02:11:12;7.50;;;5.60;;
15228;SDS011;7717;47.792;12.076;2022-11-15T02:13:37;9.30;;;6.13;;
15228;SDS011;7717;47.792;12.076;2022-11-15T02:16:06;10.13;;;6.27;;
15228;SDS011;7717;47.792;12.076;2022-11-15T02:18:41;8.07;;;6.13;;
15228;SDS011;7717;47.792;12.076;2022-11-15T02:29:33;6.10;;;5.17;;
15228;SDS011;7717;47.792;12.076;2022-11-15T02:32:08;6.27;;;5.20;;
15228;SDS011;7717;47.792;12.076;2022-11-15T02:40:40;5.43;;;4.90;;
15228;SDS011;7717;47.792;12.076;2022-11-15T02:43:14;9.13;;;5.50;;
15228;SDS011;7717;47.792;12.076;2022-11-15T02:48:47;6.90;;;4.70;;
15228;SDS011;7717;47.792;12.076;2022-11-15T02:51:13;7.63;;;4.67;;
15228;SDS011;7717;47.792;12.076;2022-11-15T02:53:40;6.17;;;4.83;;
15228;SDS011;7717;47.792;12.076;2022-11-15T02:56:07;6.77;;;4.93;;
15228;SDS011;7717;47.792;12.076;2022-11-15T02:58:56;6.07;;;5.17;;
15228;SDS011;7717;47.792;12.076;2022-11-15T03:01:35;6.67;;;5.30;;
15228;SDS011;7717;47.792;12.076;2022-11-15T03:04:23;7.23;;;5.30;;
15228;SDS011;7717;47.792;12.076;2022-11-15T03:06:53;6.40;;;5.13;;
15228;SDS011;7717;47.792;12.076;2022-11-15T03:09:34;5.53;;;4.77;;
15228;SDS011;7717;47.792;12.076;2022-11-15T03:12:07;6.00;;;4.90;;
15228;SDS011;7717;47.792;12.076;2022-11-15T03:14:43;5.57;;;5.00;;
15228;SDS011;7717;47.792;12.076;2022-11-15T03:17:38;8.57;;;5.07;;
15228;SDS011;7717;47.792;12.076;2022-11-15T03:20:08;6.07;;;4.87;;
15228;SDS011;7717;47.792;12.076;2022-11-15T03:22:37;6.20;;;4.87;;
15228;SDS011;7717;47.792;12.076;2022-11-15T03:25:08;5.50;;;4.90;;
15228;SDS011;7717;47.792;12.076;2022-11-15T03:27:39;6.30;;;4.87;;
15228;SDS011;7717;47.792;12.076;2022-11-15T03:30:07;6.40;;;5.53;;
15228;SDS011;7717;47.792;12.076;2022-11-15T03:32:34;5.97;;;4.50;;
15228;SDS011;7717;47.792;12.076;2022-11-15T03:35:10;6.50;;;5.53;;
15228;SDS011;7717;47.792;12.076;2022-11-15T03:37:42;16.67;;;11.50;;
15228;SDS011;7717;47.792;12.076;2022-11-15T03:40:09;12.97;;;9.00;;
15228;SDS011;7717;47.792;12.076;2022-11-15T03:42:39;12.70;;;8.60;;
15228;SDS011;7717;47.792;12.076;2022-11-15T03:45:14;10.63;;;7.83;;
15228;SDS011;7717;47.792;12.076;2022-11-15T03:47:54;15.30;;;10.40;;
15228;SDS011;7717;47.792;12.076;2022-11-15T03:50:29;11.93;;;8.43;;
15228;SDS011;7717;47.792;12.076;2022-11-15T03:52:55;23.97;;;14.77;;
15228;SDS011;7717;47.792;12.076;2022-11-15T03:55:21;21.00;;;12.47;;
15228;SDS011;7717;47.792;12.076;2022-11-15T03:57:49;13.13;;;8.73;;
15228;SDS011;7717;47.792;12.076;2022-11-15T04:00:18;13.70;;;9.33;;
15228;SDS011;7717;47.792;12.076;2022-11-15T04:02:43;13.70;;;8.53;;
15228;SDS011;7717;47.792;12.076;2022-11-15T04:05:09;13.37;;;8.23;;
15228;SDS011;7717;47.792;12.076;2022-11-15T04:07:34;12.23;;;7.87;;
15228;SDS011;7717;47.792;12.076;2022-11-15T04:09:59;12.57;;;7.83;;
15228;SDS011;7717;47.792;12.076;2022-11-15T04:12:31;24.37;;;12.03;;
15228;SDS011;7717;47.792;12.076;2022-11-15T04:14:58;14.10;;;8.40;;
15228;SDS011;7717;47.792;12.076;2022-11-15T04:20:17;12.03;;;8.70;;
15228;SDS011;7717;47.792;12.076;2022-11-15T04:23:04;9.73;;;5.97;;
15228;SDS011;7717;47.792;12.076;2022-11-15T04:25:50;7.93;;;5.00;;
15228;SDS011;7717;47.792;12.076;2022-11-15T04:28:17;7.97;;;5.50;;
15228;SDS011;7717;47.792;12.076;2022-11-15T04:30:43;12.23;;;8.90;;
15228;SDS011;7717;47.792;12.076;2022-11-15T04:33:08;10.37;;;6.80;;
15228;SDS011;7717;47.792;12.076;2022-11-15T04:35:34;7.53;;;5.17;;
15228;SDS011;7717;47.792;12.076;2022-11-15T04:37:59;8.83;;;6.20;;
15228;SDS011;7717;47.792;12.076;2022-11-15T04:40:25;7.20;;;4.67;;
15228;SDS011;7717;47.792;12.076;2022-11-15T04:42:51;6.00;;;5.13;;
15228;SDS011;7717;47.792;12.076;2022-11-15T04:45:16;6.33;;;5.70;;
15228;SDS011;7717;47.792;12.076;2022-11-15T04:47:45;6.53;;;5.60;;
15228;SDS011;7717;47.792;12.076;2022-11-15T04:50:11;7.43;;;6.10;;
15228;SDS011;7717;47.792;12.076;2022-11-15T04:52:39;5.67;;;4.53;;
15228;SDS011;7717;47.792;12.076;2022-11-15T04:55:10;6.07;;;5.47;;
15228;SDS011;7717;47.792;12.076;2022-11-15T04:57:36;6.90;;;5.17;;
15228;SDS011;7717;47.792;12.076;2022-11-15T05:00:06;5.57;;;5.00;;
15228;SDS011;7717;47.792;12.076;2022-11-15T05:02:33;7.40;;;5.63;;
15228;SDS011;7717;47.792;12.076;2022-11-15T05:05:17;2.57;;;2.30;;
15228;SDS011;7717;47.792;12.076;2022-11-15T05:07:42;18.47;;;11.93;;
15228;SDS011;7717;47.792;12.076;2022-11-15T05:10:08;6.90;;;4.33;;
15228;SDS011;7717;47.792;12.076;2022-11-15T05:12:34;6.87;;;5.80;;
15228;SDS011;7717;47.792;12.076;2022-11-15T05:15:00;7.53;;;6.00;;
15228;SDS011;7717;47.792;12.076;2022-11-15T05:17:25;6.70;;;5.03;;
15228;SDS011;7717;47.792;12.076;2022-11-15T05:19:50;7.03;;;5.60;;
15228;SDS011;7717;47.792;12.076;2022-11-15T05:22:17;6.77;;;4.83;;
15228;SDS011;7717;47.792;12.076;2022-11-15T05:24:42;6.13;;;5.43;;
15228;SDS011;7717;47.792;12.076;2022-11-15T05:27:08;5.83;;;4.57;;
15228;SDS011;7717;47.792;12.076;2022-11-15T05:29:33;5.40;;;4.13;;
15228;SDS011;7717;47.792;12.076;2022-11-15T05:31:58;6.63;;;5.70;;
15228;SDS011;7717;47.792;12.076;2022-11-15T05:34:24;5.70;;;4.87;;
15228;SDS011;7717;47.792;12.076;2022-11-15T05:36:51;7.07;;;5.50;;
15228;SDS011;7717;47.792;12.076;2022-11-15T05:39:17;7.87;;;6.33;;
15228;SDS011;7717;47.792;12.076;2022-11-15T05:41:52;6.67;;;5.03;;
15228;SDS011;7717;47.792;12.076;2022-11-15T05:44:22;6.23;;;4.70;;
15228;SDS011;7717;47.792;12.076;2022-11-15T05:46:49;7.47;;;5.07;;
15228;SDS011;7717;47.792;12.076;2022-11-15T05:49:18;10.90;;;6.70;;
15228;SDS011;7717;47.792;12.076;2022-11-15T05:51:47;6.17;;;5.23;;
15228;SDS011;7717;47.792;12.076;2022-11-15T05:54:13;5.23;;;4.50;;
15228;SDS011;7717;47.792;12.076;2022-11-15T05:56:39;6.33;;;5.07;;
15228;SDS011;7717;47.792;12.076;2022-11-15T05:59:05;4.33;;;3.80;;
15228;SDS011;7717;47.792;12.076;2022-11-15T06:01:32;7.17;;;5.57;;
15228;SDS011;7717;47.792;12.076;2022-11-15T06:03:57;7.07;;;4.67;;
15228;SDS011;7717;47.792;12.076;2022-11-15T06:06:22;5.97;;;4.70;;
15228;SDS011;7717;47.792;12.076;2022-11-15T06:08:48;5.53;;;4.90;;
15228;SDS011;7717;47.792;12.076;2022-11-15T06:11:13;4.60;;;4.17;;
15228;SDS011;7717;47.792;12.076;2022-11-15T06:13:39;7.10;;;6.17;;
15228;SDS011;7717;47.792;12.076;2022-11-15T06:16:04;7.23;;;5.93;;
15228;SDS011;7717;47.792;12.076;2022-11-15T06:18:33;10.00;;;7.47;;
15228;SDS011;7717;47.792;12.076;2022-11-15T06:20:59;6.73;;;5.73;;
15228;SDS011;7717;47.792;12.076;2022-11-15T06:23:25;5.93;;;5.30;;
15228;SDS011;7717;47.792;12.076;2022-11-15T06:25:51;5.23;;;4.57;;
15228;SDS011;7717;47.792;12.076;2022-11-15T06:28:16;6.47;;;5.67;;
15228;SDS011;7717;47.792;12.076;2022-11-15T06:30:42;6.97;;;4.77;;
15228;SDS011;7717;47.792;12.076;2022-11-15T06:33:07;6.00;;;5.27;;
15228;SDS011;7717;47.792;12.076;2022-11-15T06:35:34;5.13;;;4.57;;
15228;SDS011;7717;47.792;12.076;2022-11-15T06:38:04;9.50;;;5.77;;
15228;SDS011;7717;47.792;12.076;2022-11-15T06:40:33;6.40;;;4.73;;
15228;SDS011;7717;47.792;12.076;2022-11-15T06:43:00;12.73;;;7.90;;
15228;SDS011;7717;47.792;12.076;2022-11-15T06:45:25;11.00;;;7.80;;
15228;SDS011;7717;47.792;12.076;2022-11-15T06:47:51;9.13;;;7.70;;
15228;SDS011;7717;47.792;12.076;2022-11-15T06:50:16;5.40;;;4.33;;
15228;SDS011;7717;47.792;12.076;2022-11-15T06:52:42;5.97;;;4.57;;
15228;SDS011;7717;47.792;12.076;2022-11-15T06:55:07;12.30;;;9.77;;
15228;SDS011;7717;47.792;12.076;2022-11-15T06:57:34;5.07;;;4.43;;
15228;SDS011;7717;47.792;12.076;2022-11-15T06:59:59;5.57;;;5.07;;
15228;SDS011;7717;47.792;12.076;2022-11-15T07:02:25;5.17;;;4.53;;
15228;SDS011;7717;47.792;12.076;2022-11-15T07:04:50;11.20;;;9.10;;
15228;SDS011;7717;47.792;12.076;2022-11-15T07:07:17;11.77;;;9.50;;
15228;SDS011;7717;47.792;12.076;2022-11-15T07:09:42;5.03;;;3.67;;
15228;SDS011;7717;47.792;12.076;2022-11-15T07:12:08;5.10;;;4.60;;
15228;SDS011;7717;47.792;12.076;2022-11-15T07:14:33;4.40;;;4.00;;
15228;SDS011;7717;47.792;12.076;2022-11-15T07:16:59;4.60;;;4.20;;
15228;SDS011;7717;47.792;12.076;2022-11-15T07:19:25;4.50;;;4.10;;
15228;SDS011;7717;47.792;12.076;2022-11-15T07:21:51;4.97;;;3.20;;
15228;SDS011;7717;47.792;12.076;2022-11-15T07:24:22;5.07;;;3.40;;
15228;SDS011;7717;47.792;12.076;2022-11-15T07:26:47;5.57;;;3.60;;
15228;SDS011;7717;47.792;12.076;2022-11-15T07:29:13;5.57;;;4.37;;
15228;SDS011;7717;47.792;12.076;2022-11-15T07:31:38;4.53;;;3.03;;
15228;SDS011;7717;47.792;12.076;2022-11-15T07:34:04;3.13;;;2.87;;
15228;SDS011;7717;47.792;12.076;2022-11-15T07:36:29;3.63;;;3.33;;
15228;SDS011;7717;47.792;12.076;2022-11-15T07:38:55;3.57;;;3.27;;
15228;SDS011;7717;47.792;12.076;2022-11-15T07:41:20;2.80;;;2.60;;
15228;SDS011;7717;47.792;12.076;2022-11-15T07:43:46;3.17;;;2.93;;
15228;SDS011;7717;47.792;12.076;2022-11-15T07:46:11;4.17;;;3.60;;
15228;SDS011;7717;47.792;12.076;2022-11-15T07:48:37;4.40;;;3.47;;
15228;SDS011;7717;47.792;12.076;2022-11-15T07:51:05;4.37;;;3.83;;
15228;SDS011;7717;47.792;12.076;2022-11-15T07:53:30;4.13;;;3.73;;
15228;SDS011;7717;47.792;12.076;2022-11-15T07:55:56;4.63;;;3.97;;
15228;SDS011;7717;47.792;12.076;2022-11-15T07:58:21;5.97;;;3.83;;
15228;SDS011;7717;47.792;12.076;2022-11-15T08:00:47;5.30;;;3.83;;
15228;SDS011;7717;47.792;12.076;2022-11-15T08:03:15;5.67;;;4.60;;
15228;SDS011;7717;47.792;12.076;2022-11-15T08:05:42;7.57;;;5.60;;
15228;SDS011;7717;47.792;12.076;2022-11-15T08:08:11;5.67;;;4.47;;
15228;SDS011;7717;47.792;12.076;2022-11-15T08:10:36;5.83;;;5.07;;
15228;SDS011;7717;47.792;12.076;2022-11-15T08:13:05;10.33;;;7.30;;
15228;SDS011;7717;47.792;12.076;2022-11-15T08:15:33;11.30;;;8.27;;
15228;SDS011;7717;47.792;12.076;2022-11-15T08:18:01;10.23;;;6.57;;
15228;SDS011;7717;47.792;12.076;2022-11-15T08:20:29;7.37;;;6.60;;
15228;SDS011;7717;47.792;12.076;2022-11-15T08:22:55;5.60;;;4.67;;
15228;SDS011;7717;47.792;12.076;2022-11-15T08:25:25;9.23;;;6.90;;
15228;SDS011;7717;47.792;12.076;2022-11-15T08:27:57;9.60;;;7.27;;
15228;SDS011;7717;47.792;12.076;2022-11-15T08:30:24;8.53;;;5.93;;
15228;SDS011;7717;47.792;12.076;2022-11-15T08:32:51;5.93;;;5.13;;
15228;SDS011;7717;47.792;12.076;2022-11-15T08:35:17;4.13;;;3.27;;
15228;SDS011;7717;47.792;12.076;2022-11-15T08:37:42;3.83;;;3.53;;
15228;SDS011;7717;47.792;12.076;2022-11-15T08:40:08;3.53;;;2.43;;
15228;SDS011;7717;47.792;12.076;2022-11-15T08:42:34;1.97;;;1.80;;
15228;SDS011;7717;47.792;12.076;2022-11-15T08:45:00;3.67;;;2.57;;
15228;SDS011;7717;47.792;12.076;2022-11-15T08:47:26;3.47;;;2.83;;
15228;SDS011;7717;47.792;12.076;2022-11-15T08:49:51;2.37;;;2.17;;
15228;SDS011;7717;47.792;12.076;2022-11-15T08:52:17;5.03;;;1.77;;
15228;SDS011;7717;47.792;12.076;2022-11-15T08:54:42;2.10;;;2.00;;
15228;SDS011;7717;47.792;12.076;2022-11-15T08:57:08;2.13;;;1.90;;
15228;SDS011;7717;47.792;12.076;2022-11-15T08:59:34;1.30;;;1.20;;
15228;SDS011;7717;47.792;12.076;2022-11-15T09:02:00;2.10;;;1.90;;
15228;SDS011;7717;47.792;12.076;2022-11-15T09:04:26;1.63;;;1.53;;
15228;SDS011;7717;47.792;12.076;2022-11-15T09:06:51;1.83;;;1.63;;
15228;SDS011;7717;47.792;12.076;2022-11-15T09:09:16;3.33;;;2.00;;
15228;SDS011;7717;47.792;12.076;2022-11-15T09:11:42;3.57;;;1.80;;
15228;SDS011;7717;47.792;12.076;2022-11-15T09:14:07;2.00;;;1.90;;
15228;SDS011;7717;47.792;12.076;2022-11-15T09:16:35;2.37;;;2.17;;
15228;SDS011;7717;47.792;12.076;2022-11-15T09:19:00;3.30;;;2.10;;
15228;SDS011;7717;47.792;12.076;2022-11-15T09:21:25;2.67;;;2.00;;
15228;SDS011;7717;47.792;12.076;2022-11-15T09:23:51;2.20;;;2.10;;
15228;SDS011;7717;47.792;12.076;2022-11-15T09:26:17;2.40;;;2.20;;
15228;SDS011;7717;47.792;12.076;2022-11-15T09:28:43;2.87;;;2.07;;
15228;SDS011;7717;47.792;12.076;2022-11-15T09:31:08;2.00;;;1.90;;
15228;SDS011;7717;47.792;12.076;2022-11-15T09:33:33;2.37;;;2.17;;
15228;SDS011;7717;47.792;12.076;2022-11-15T09:35:59;2.30;;;2.10;;
15228;SDS011;7717;47.792;12.076;2022-11-15T09:38:29;2.40;;;1.97;;
15228;SDS011;7717;47.792;12.076;2022-11-15T09:46:43;2.10;;;1.90;;
15228;SDS011;7717;47.792;12.076;2022-11-15T09:49:11;1.63;;;1.50;;
15228;SDS011;7717;47.792;12.076;2022-11-15T09:51:41;2.93;;;2.10;;
15228;SDS011;7717;47.792;12.076;2022-11-15T09:59:52;2.30;;;2.10;;
15228;SDS011;7717;47.792;12.076;2022-11-15T10:05:22;2.57;;;1.77;;
15228;SDS011;7717;47.792;12.076;2022-11-15T10:07:53;2.10;;;1.83;;
15228;SDS011;7717;47.792;12.076;2022-11-15T10:10:29;2.00;;;1.90;;
15228;SDS011;7717;47.792;12.076;2022-11-15T10:13:13;3.37;;;2.37;;
15228;SDS011;7717;47.792;12.076;2022-11-15T10:15:45;2.83;;;2.27;;
15228;SDS011;7717;47.792;12.076;2022-11-15T10:18:17;4.43;;;2.03;;
15228;SDS011;7717;47.792;12.076;2022-11-15T10:20:57;4.93;;;2.43;;
15228;SDS011;7717;47.792;12.076;2022-11-15T10:23:24;2.33;;;2.13;;
15228;SDS011;7717;47.792;12.076;2022-11-15T10:25:52;2.77;;;2.10;;
15228;SDS011;7717;47.792;12.076;2022-11-15T10:28:26;2.50;;;2.30;;
15228;SDS011;7717;47.792;12.076;2022-11-15T10:30:56;3.90;;;2.60;;
15228;SDS011;7717;47.792;12.076;2022-11-15T10:41:47;2.60;;;2.03;;
15228;SDS011;7717;47.792;12.076;2022-11-15T10:46:36;2.63;;;2.00;;
15228;SDS011;7717;47.792;12.076;2022-11-15T10:49:16;3.43;;;2.57;;
15228;SDS011;7717;47.792;12.076;2022-11-15T10:54:14;2.73;;;2.20;;
15228;SDS011;7717;47.792;12.076;2022-11-15T10:56:53;4.27;;;2.40;;
15228;SDS011;7717;47.792;12.076;2022-11-15T10:59:23;3.00;;;2.37;;
15228;SDS011;7717;47.792;12.076;2022-11-15T11:01:53;4.27;;;2.17;;
15228;SDS011;7717;47.792;12.076;2022-11-15T11:04:18;2.40;;;2.20;;
15228;SDS011;7717;47.792;12.076;2022-11-15T11:09:33;2.30;;;1.90;;
15228;SDS011;7717;47.792;12.076;2022-11-15T11:12:01;1.83;;;1.73;;
15228;SDS011;7717;47.792;12.076;2022-11-15T11:14:32;3.63;;;2.07;;
15228;SDS011;7717;47.792;12.076;2022-11-15T11:22:15;1.70;;;1.60;;
15228;SDS011;7717;47.792;12.076;2022-11-15T11:30:08;5.23;;;3.50;;
15228;SDS011;7717;47.792;12.076;2022-11-15T11:35:29;3.47;;;2.17;;
15228;SDS011;7717;47.792;12.076;2022-11-15T11:38:07;6.30;;;3.83;;
15228;SDS011;7717;47.792;12.076;2022-11-15T11:49:25;1.90;;;1.80;;
15228;SDS011;7717;47.792;12.076;2022-11-15T11:52:05;4.60;;;3.07;;
15228;SDS011;7717;47.792;12.076;2022-11-15T12:05:49;5.87;;;3.83;;
15228;SDS011;7717;47.792;12.076;2022-11-15T12:13:33;2.70;;;2.47;;
15228;SDS011;7717;47.792;12.076;2022-11-15T12:18:36;2.13;;;1.20;;
15228;SDS011;7717;47.792;12.076;2022-11-15T12:24:06;1.70;;;1.60;;
15228;SDS011;7717;47.792;12.076;2022-11-15T12:26:41;2.40;;;1.77;;
15228;SDS011;7717;47.792;12.076;2022-11-15T12:29:31;1.47;;;1.37;;
15228;SDS011;7717;47.792;12.076;2022-11-15T12:32:02;2.08;;;1.58;;
15228;SDS011;7717;47.792;12.076;2022-11-15T12:34:42;2.63;;;1.67;;
15228;SDS011;7717;47.792;12.076;2022-11-15T12:40:31;2.20;;;2.07;;
15228;SDS011;7717;47.792;12.076;2022-11-15T12:45:39;2.50;;;2.30;;
15228;SDS011;7717;47.792;12.076;2022-11-15T13:01:54;1.80;;;1.70;;
15228;SDS011;7717;47.792;12.076;2022-11-15T13:06:56;1.87;;;1.70;;
15228;SDS011;7717;47.792;12.076;2022-11-15T13:11:55;1.87;;;1.73;;
15228;SDS011;7717;47.792;12.076;2022-11-15T13:17:15;2.00;;;1.90;;
15228;SDS011;7717;47.792;12.076;2022-11-15T13:19:41;2.57;;;1.80;;
15228;SDS011;7717;47.792;12.076;2022-11-15T13:22:10;2.97;;;2.00;;
15228;SDS011;7717;47.792;12.076;2022-11-15T13:24:55;2.37;;;1.47;;
15228;SDS011;7717;47.792;12.076;2022-11-15T13:27:21;3.67;;;2.40;;
15228;SDS011;7717;47.792;12.076;2022-11-15T13:29:47;1.90;;;1.70;;
15228;SDS011;7717;47.792;12.076;2022-11-15T13:32:13;2.97;;;1.83;;
15228;SDS011;7717;47.792;12.076;2022-11-15T13:34:43;1.97;;;1.70;;
15228;SDS011;7717;47.792;12.076;2022-11-15T13:39:49;2.37;;;1.97;;
15228;SDS011;7717;47.792;12.076;2022-11-15T13:42:15;1.90;;;1.70;;
15228;SDS011;7717;47.792;12.076;2022-11-15T13:44:58;2.00;;;1.90;;
15228;SDS011;7717;47.792;12.076;2022-11-15T13:47:26;2.63;;;2.00;;
15228;SDS011;7717;47.792;12.076;2022-11-15T13:49:52;2.47;;;1.80;;
15228;SDS011;7717;47.792;12.076;2022-11-15T13:52:18;3.07;;;1.70;;
15228;SDS011;7717;47.792;12.076;2022-11-15T13:54:46;2.80;;;1.80;;
15228;SDS011;7717;47.792;12.076;2022-11-15T14:00:03;4.10;;;1.87;;
15228;SDS011;7717;47.792;12.076;2022-11-15T14:02:33;2.13;;;1.93;;
15228;SDS011;7717;47.792;12.076;2022-11-15T14:05:17;2.20;;;2.00;;
15228;SDS011;7717;47.792;12.076;2022-11-15T14:07:58;4.40;;;2.10;;
15228;SDS011;7717;47.792;12.076;2022-11-15T14:10:36;2.50;;;2.00;;
15228;SDS011;7717;47.792;12.076;2022-11-15T14:13:03;3.80;;;2.53;;
15228;SDS011;7717;47.792;12.076;2022-11-15T14:15:34;2.63;;;2.40;;
15228;SDS011;7717;47.792;12.076;2022-11-15T14:18:01;3.00;;;2.63;;
15228;SDS011;7717;47.792;12.076;2022-11-15T14:20:32;3.77;;;3.40;;
15228;SDS011;7717;47.792;12.076;2022-11-15T14:22:58;3.87;;;2.90;;
15228;SDS011;7717;47.792;12.076;2022-11-15T14:25:26;4.93;;;2.37;;
15228;SDS011;7717;47.792;12.076;2022-11-15T14:30:44;3.43;;;1.60;;
15228;SDS011;7717;47.792;12.076;2022-11-15T14:33:23;3.10;;;1.77;;
15228;SDS011;7717;47.792;12.076;2022-11-15T14:35:49;1.77;;;1.60;;
15228;SDS011;7717;47.792;12.076;2022-11-15T14:38:15;1.70;;;1.47;;
15228;SDS011;7717;47.792;12.076;2022-11-15T14:40:40;3.13;;;1.90;;
15228;SDS011;7717;47.792;12.076;2022-11-15T14:43:08;3.63;;;1.70;;
15228;SDS011;7717;47.792;12.076;2022-11-15T14:45:36;1.97;;;1.70;;
15228;SDS011;7717;47.792;12.076;2022-11-15T14:48:02;2.17;;;1.80;;
15228;SDS011;7717;47.792;12.076;2022-11-15T14:50:27;3.23;;;1.93;;
15228;SDS011;7717;47.792;12.076;2022-11-15T14:52:53;2.17;;;1.80;;
15228;SDS011;7717;47.792;12.076;2022-11-15T14:55:23;1.83;;;1.70;;
15228;SDS011;7717;47.792;12.076;2022-11-15T14:57:50;2.93;;;2.10;;
15228;SDS011;7717;47.792;12.076;2022-11-15T15:00:17;3.90;;;2.40;;
15228;SDS011;7717;47.792;12.076;2022-11-15T15:02:43;3.77;;;2.60;;
15228;SDS011;7717;47.792;12.076;2022-11-15T15:05:18;6.57;;;4.87;;
15228;SDS011;7717;47.792;12.076;2022-11-15T15:07:46;6.07;;;3.10;;
15228;SDS011;7717;47.792;12.076;2022-11-15T15:10:12;4.00;;;3.37;;
15228;SDS011;7717;47.792;12.076;2022-11-15T15:12:38;4.53;;;4.13;;
15228;SDS011;7717;47.792;12.076;2022-11-15T15:15:04;4.77;;;4.23;;
15228;SDS011;7717;47.792;12.076;2022-11-15T15:17:30;8.80;;;4.90;;
15228;SDS011;7717;47.792;12.076;2022-11-15T15:19:56;4.77;;;3.57;;
15228;SDS011;7717;47.792;12.076;2022-11-15T15:22:21;16.50;;;4.27;;
15228;SDS011;7717;47.792;12.076;2022-11-15T15:24:50;3.87;;;3.33;;
15228;SDS011;7717;47.792;12.076;2022-11-15T15:27:15;6.20;;;4.63;;
15228;SDS011;7717;47.792;12.076;2022-11-15T15:29:41;8.17;;;5.97;;
15228;SDS011;7717;47.792;12.076;2022-11-15T15:32:06;27.13;;;17.47;;
15228;SDS011;7717;47.792;12.076;2022-11-15T15:34:31;21.00;;;13.50;;
15228;SDS011;7717;47.792;12.076;2022-11-15T15:39:53;18.97;;;12.53;;
15228;SDS011;7717;47.792;12.076;2022-11-15T15:42:20;10.40;;;7.10;;
15228;SDS011;7717;47.792;12.076;2022-11-15T15:44:47;11.77;;;8.93;;
15228;SDS011;7717;47.792;12.076;2022-11-15T15:47:13;11.87;;;8.97;;
15228;SDS011;7717;47.792;12.076;2022-11-15T15:49:41;10.73;;;9.07;;
15228;SDS011;7717;47.792;12.076;2022-11-15T15:52:07;9.80;;;7.03;;
15228;SDS011;7717;47.792;12.076;2022-11-15T15:54:32;10.30;;;5.47;;
15228;SDS011;7717;47.792;12.076;2022-11-15T15:56:57;6.60;;;5.93;;
15228;SDS011;7717;47.792;12.076;2022-11-15T15:59:23;4.90;;;4.50;;
15228;SDS011;7717;47.792;12.076;2022-11-15T16:01:48;4.60;;;4.07;;
15228;SDS011;7717;47.792;12.076;2022-11-15T16:04:13;3.93;;;3.60;;
15228;SDS011;7717;47.792;12.076;2022-11-15T16:06:39;6.73;;;5.57;;
15228;SDS011;7717;47.792;12.076;2022-11-15T16:09:10;10.17;;;7.17;;
15228;SDS011;7717;47.792;12.076;2022-11-15T16:11:43;17.60;;;13.40;;
15228;SDS011;7717;47.792;12.076;2022-11-15T16:14:10;12.87;;;9.53;;
15228;SDS011;7717;47.792;12.076;2022-11-15T16:16:35;12.47;;;11.17;;
15228;SDS011;7717;47.792;12.076;2022-11-15T16:19:02;16.40;;;11.87;;
15228;SDS011;7717;47.792;12.076;2022-11-15T16:21:28;16.43;;;10.83;;
15228;SDS011;7717;47.792;12.076;2022-11-15T16:23:53;16.10;;;12.27;;
15228;SDS011;7717;47.792;12.076;2022-11-15T16:28:51;18.77;;;13.03;;
15228;SDS011;7717;47.792;12.076;2022-11-15T16:31:17;19.33;;;14.37;;
15228;SDS011;7717;47.792;12.076;2022-11-15T16:33:45;20.63;;;14.60;;
15228;SDS011;7717;47.792;12.076;2022-11-15T16:36:22;21.07;;;14.83;;
15228;SDS011;7717;47.792;12.076;2022-11-15T16:38:48;26.73;;;17.30;;
15228;SDS011;7717;47.792;12.076;2022-11-15T16:41:14;20.30;;;15.67;;
15228;SDS011;7717;47.792;12.076;2022-11-15T16:43:43;19.40;;;12.77;;
15228;SDS011;7717;47.792;12.076;2022-11-15T16:46:20;17.97;;;12.63;;
15228;SDS011;7717;47.792;12.076;2022-11-15T16:48:47;17.10;;;12.60;;
15228;SDS011;7717;47.792;12.076;2022-11-15T16:51:13;17.57;;;12.97;;
15228;SDS011;7717;47.792;12.076;2022-11-15T16:53:39;22.80;;;14.80;;
15228;SDS011;7717;47.792;12.076;2022-11-15T16:58:42;21.60;;;14.10;;
15228;SDS011;7717;47.792;12.076;2022-11-15T17:01:09;18.23;;;12.93;;
15228;SDS011;7717;47.792;12.076;2022-11-15T17:03:41;16.33;;;12.60;;
15228;SDS011;7717;47.792;12.076;2022-11-15T17:06:07;19.63;;;14.90;;
15228;SDS011;7717;47.792;12.076;2022-11-15T17:08:33;24.03;;;16.07;;